Time;durP1;ratioP1;P1;durP2;ratioP2;P2;SDS_P1;SDS_P2;PMS_P1;PMS_P2;Temp;Humidity;BMP_temperature;BMP_pressure;BME280_temperature;BME280_humidity;BME280_pressure;Samples;Min_cycle;Max_cycle;Signal;HPM_P1;HPM_P2
2021/04/19 00:01:26;;;;;;;9.13;5.23;;;;;;;;;;5120835;28;20236;-71
2021/04/19 00:03:53;;;;;;;9.50;4.73;;;;;;;;;;5121257;27;20232;-70
2021/04/19 00:06:21;;;;;;;8.43;4.87;;;;;;;;;;5121192;28;20221;-71
2021/04/19 00:08:48;;;;;;;7.90;4.73;;;;;;;;;;5120920;27;20659;-71
2021/04/19 00:11:15;;;;;;;12.80;4.83;;;;;;;;;;5121041;28;20251;-70
2021/04/19 00:13:42;;;;;;;10.70;5.60;;;;;;;;;;5120864;28;20350;-70
2021/04/19 00:16:10;;;;;;;9.23;4.90;;;;;;;;;;5120397;28;20691;-70
2021/04/19 00:18:37;;;;;;;9.17;4.90;;;;;;;;;;5120738;28;20217;-71
2021/04/19 00:21:05;;;;;;;8.20;4.50;;;;;;;;;;5120966;28;20234;-70
2021/04/19 00:23:33;;;;;;;8.43;5.37;;;;;;;;;;5120008;28;20209;-70
2021/04/19 00:26:00;;;;;;;7.03;4.87;;;;;;;;;;5120351;28;20264;-71
2021/04/19 00:28:28;;;;;;;7.27;4.93;;;;;;;;;;5120478;28;20231;-71
2021/04/19 00:30:55;;;;;;;7.40;4.87;;;;;;;;;;5120378;28;20752;-71
2021/04/19 00:33:22;;;;;;;5.73;4.23;;;;;;;;;;5120735;28;20237;-70
2021/04/19 00:35:49;;;;;;;5.73;4.57;;;;;;;;;;5120127;28;20220;-71
2021/04/19 00:38:16;;;;;;;5.17;4.03;;;;;;;;;;5120716;28;20295;-70
2021/04/19 00:40:44;;;;;;;7.97;4.47;;;;;;;;;;5120264;28;20776;-71
2021/04/19 00:43:11;;;;;;;6.80;4.40;;;;;;;;;;5120138;28;20244;-71
2021/04/19 00:45:39;;;;;;;7.23;4.97;;;;;;;;;;5119945;28;20280;-70
2021/04/19 00:48:06;;;;;;;7.83;5.10;;;;;;;;;;5120220;28;20691;-71
2021/04/19 00:50:34;;;;;;;8.37;5.60;;;;;;;;;;5120350;28;20278;-71
2021/04/19 00:53:02;;;;;;;7.83;4.80;;;;;;;;;;5120476;28;20268;-71
2021/04/19 00:55:29;;;;;;;7.50;5.00;;;;;;;;;;5120050;28;20308;-71
2021/04/19 00:57:57;;;;;;;7.43;5.13;;;;;;;;;;5119909;28;20215;-71
2021/04/19 01:00:25;;;;;;;10.23;4.63;;;;;;;;;;5120122;28;20288;-70
2021/04/19 01:02:52;;;;;;;6.43;4.90;;;;;;;;;;5120066;28;20268;-70
2021/04/19 01:05:21;;;;;;;7.47;5.10;;;;;;;;;;5119646;28;20643;-70
2021/04/19 01:07:48;;;;;;;6.20;4.83;;;;;;;;;;5120113;28;20292;-70
2021/04/19 01:10:15;;;;;;;9.23;5.20;;;;;;;;;;5119879;28;20289;-71
2021/04/19 01:12:42;;;;;;;8.20;5.00;;;;;;;;;;5119884;28;20236;-70
2021/04/19 01:15:14;;;;;;;7.40;4.80;;;;;;;;;;5120063;28;20742;-71
2021/04/19 01:17:41;;;;;;;7.90;4.70;;;;;;;;;;5119600;28;20201;-71
2021/04/19 01:20:09;;;;;;;6.60;5.03;;;;;;;;;;5119517;28;20205;-70
2021/04/19 01:22:38;;;;;;;9.53;4.67;;;;;;;;;;5120099;28;20292;-70
2021/04/19 01:25:06;;;;;;;8.97;4.97;;;;;;;;;;5119434;28;20323;-71
2021/04/19 01:27:33;;;;;;;7.90;5.17;;;;;;;;;;5119239;28;20382;-71
2021/04/19 01:30:00;;;;;;;9.50;4.70;;;;;;;;;;5119663;28;20291;-70
2021/04/19 01:32:27;;;;;;;7.53;4.90;;;;;;;;;;5119368;28;20269;-71
2021/04/19 01:34:54;;;;;;;7.57;4.63;;;;;;;;;;5119039;28;20231;-70
2021/04/19 01:37:22;;;;;;;6.67;5.23;;;;;;;;;;5119329;28;20284;-71
2021/04/19 01:39:50;;;;;;;6.90;4.80;;;;;;;;;;5119194;28;20633;-70
2021/04/19 01:42:17;;;;;;;6.37;4.80;;;;;;;;;;5119228;28;20297;-70
2021/04/19 01:44:44;;;;;;;8.13;4.87;;;;;;;;;;5119363;28;20307;-70
2021/04/19 01:47:12;;;;;;;8.47;4.93;;;;;;;;;;5118662;28;20276;-70
2021/04/19 01:49:39;;;;;;;8.60;5.00;;;;;;;;;;5119203;28;20211;-69
2021/04/19 01:52:06;;;;;;;7.53;4.77;;;;;;;;;;5119112;28;20219;-69
2021/04/19 01:54:34;;;;;;;7.70;5.07;;;;;;;;;;5118843;28;20595;-69
2021/04/19 01:57:02;;;;;;;7.97;4.67;;;;;;;;;;5118571;28;20655;-70
2021/04/19 01:59:29;;;;;;;6.83;4.67;;;;;;;;;;5118876;28;20270;-71
2021/04/19 02:01:59;;;;;;;6.47;4.73;;;;;;;;;;5118649;28;20283;-71
2021/04/19 02:04:30;;;;;;;6.10;4.47;;;;;;;;;;5118736;28;20225;-71
2021/04/19 02:07:02;;;;;;;7.43;5.23;;;;;;;;;;5118912;28;20284;-70
2021/04/19 02:09:31;;;;;;;9.37;5.17;;;;;;;;;;5118891;28;20264;-71
2021/04/19 02:12:02;;;;;;;8.20;5.30;;;;;;;;;;5118383;28;20755;-70
2021/04/19 02:14:35;;;;;;;5.30;4.37;;;;;;;;;;5118560;28;20660;-71
2021/04/19 02:17:07;;;;;;;11.27;5.40;;;;;;;;;;5118431;28;20267;-70
2021/04/19 02:19:38;;;;;;;7.10;4.23;;;;;;;;;;5118464;28;20236;-70
2021/04/19 02:22:07;;;;;;;6.30;4.73;;;;;;;;;;5118478;28;20647;-69
2021/04/19 02:24:35;;;;;;;8.70;5.03;;;;;;;;;;5118557;28;20260;-71
2021/04/19 02:27:04;;;;;;;5.57;4.90;;;;;;;;;;5118237;28;20292;-71
2021/04/19 02:29:33;;;;;;;6.67;4.80;;;;;;;;;;5118311;28;20292;-70
2021/04/19 02:32:03;;;;;;;8.50;5.33;;;;;;;;;;5117997;28;20236;-70
2021/04/19 02:34:32;;;;;;;7.00;4.67;;;;;;;;;;5118381;28;20217;-71
2021/04/19 02:36:59;;;;;;;8.20;5.07;;;;;;;;;;5118233;28;20252;-70
2021/04/19 02:39:27;;;;;;;8.13;5.17;;;;;;;;;;5118425;28;20288;-69
2021/04/19 02:41:55;;;;;;;9.10;4.80;;;;;;;;;;5118144;28;20291;-68
2021/04/19 02:44:22;;;;;;;5.73;4.73;;;;;;;;;;5118402;28;20273;-70
2021/04/19 02:46:51;;;;;;;6.47;4.50;;;;;;;;;;5122763;28;20340;-70
2021/04/19 02:49:21;;;;;;;9.63;5.10;;;;;;;;;;5125204;28;20204;-70
2021/04/19 02:51:49;;;;;;;5.93;4.80;;;;;;;;;;5124979;27;20619;-70
2021/04/19 02:54:18;;;;;;;6.17;5.10;;;;;;;;;;5125179;27;20290;-69
2021/04/19 02:56:46;;;;;;;7.73;5.17;;;;;;;;;;5124889;27;20231;-70
2021/04/19 02:59:13;;;;;;;7.77;4.90;;;;;;;;;;5124939;28;20251;-70
2021/04/19 03:01:41;;;;;;;7.13;5.10;;;;;;;;;;5124563;27;20280;-70
2021/04/19 03:04:15;;;;;;;6.50;5.17;;;;;;;;;;5125095;27;20205;-70
2021/04/19 03:06:45;;;;;;;9.03;5.50;;;;;;;;;;5125001;27;20265;-69
2021/04/19 03:09:15;;;;;;;6.40;5.30;;;;;;;;;;5134867;27;20204;-70
2021/04/19 03:11:43;;;;;;;6.70;4.70;;;;;;;;;;5145177;27;20239;-70
2021/04/19 03:14:12;;;;;;;10.83;5.63;;;;;;;;;;5145350;27;20240;-70
2021/04/19 03:16:42;;;;;;;6.07;4.80;;;;;;;;;;5144849;27;20725;-69
2021/04/19 03:19:10;;;;;;;7.00;4.93;;;;;;;;;;5145379;27;20544;-69
2021/04/19 03:21:39;;;;;;;6.90;4.97;;;;;;;;;;5145457;27;20207;-70
2021/04/19 03:24:09;;;;;;;6.20;5.20;;;;;;;;;;5145195;27;20637;-70
2021/04/19 03:26:37;;;;;;;8.43;5.23;;;;;;;;;;5144923;27;20314;-68
2021/04/19 03:29:05;;;;;;;6.40;4.97;;;;;;;;;;5145292;27;20226;-70
2021/04/19 03:31:36;;;;;;;6.10;4.87;;;;;;;;;;5145187;27;20203;-68
2021/04/19 03:34:06;;;;;;;10.73;6.33;;;;;;;;;;5145094;27;20204;-69
2021/04/19 03:36:35;;;;;;;10.03;5.43;;;;;;;;;;5124432;27;20317;-68
2021/04/19 03:39:03;;;;;;;8.67;5.17;;;;;;;;;;5124739;27;20304;-70
2021/04/19 03:41:34;;;;;;;8.70;5.70;;;;;;;;;;5124652;27;20212;-71
2021/04/19 03:44:02;;;;;;;9.33;5.23;;;;;;;;;;5124611;27;20283;-70
2021/04/19 03:46:31;;;;;;;8.57;4.87;;;;;;;;;;5124224;27;20208;-71
2021/04/19 03:49:01;;;;;;;6.83;5.57;;;;;;;;;;5124662;27;20215;-71
2021/04/19 03:51:29;;;;;;;7.70;5.17;;;;;;;;;;5124459;27;20219;-70
2021/04/19 03:53:57;;;;;;;7.63;5.20;;;;;;;;;;5124282;27;20240;-71
2021/04/19 03:56:25;;;;;;;6.83;5.10;;;;;;;;;;5124462;27;20284;-70
2021/04/19 03:58:53;;;;;;;7.07;4.97;;;;;;;;;;5120125;27;20223;-70
2021/04/19 04:01:21;;;;;;;6.13;4.97;;;;;;;;;;5120796;28;20236;-69
2021/04/19 04:03:49;;;;;;;9.47;5.27;;;;;;;;;;5121023;28;20651;-70
2021/04/19 04:06:17;;;;;;;10.27;5.17;;;;;;;;;;5121008;28;20220;-70
2021/04/19 04:08:44;;;;;;;7.57;5.57;;;;;;;;;;5121204;28;20283;-70
2021/04/19 04:11:12;;;;;;;7.60;5.27;;;;;;;;;;5121073;28;20209;-72
2021/04/19 04:13:39;;;;;;;8.50;5.57;;;;;;;;;;5120867;28;20221;-71
2021/04/19 04:16:07;;;;;;;9.63;5.53;;;;;;;;;;5120450;28;20311;-71
2021/04/19 04:18:34;;;;;;;8.67;5.67;;;;;;;;;;5120041;28;20212;-71
2021/04/19 04:21:03;;;;;;;7.87;5.03;;;;;;;;;;5121797;27;20673;-71
2021/04/19 04:23:30;;;;;;;9.07;5.50;;;;;;;;;;5120865;27;20288;-70
2021/04/19 04:25:57;;;;;;;7.67;5.70;;;;;;;;;;5120008;28;20642;-70
2021/04/19 04:28:25;;;;;;;7.70;5.33;;;;;;;;;;5117304;28;20215;-71
2021/04/19 04:30:52;;;;;;;7.87;5.83;;;;;;;;;;5120818;27;20235;-71
2021/04/19 04:33:20;;;;;;;7.77;5.93;;;;;;;;;;5121759;27;20659;-71
2021/04/19 04:35:47;;;;;;;7.20;5.77;;;;;;;;;;5120551;27;20307;-71
2021/04/19 04:38:14;;;;;;;12.17;6.40;;;;;;;;;;5121432;27;20257;-71
2021/04/19 04:40:41;;;;;;;9.40;5.90;;;;;;;;;;5120370;27;20291;-71
2021/04/19 04:43:12;;;;;;;10.47;6.73;;;;;;;;;;5119758;28;20200;-71
2021/04/19 04:45:39;;;;;;;12.37;6.33;;;;;;;;;;5120144;27;20231;-71
2021/04/19 04:48:08;;;;;;;9.23;6.10;;;;;;;;;;5119576;28;20277;-71
2021/04/19 04:50:40;;;;;;;10.40;6.00;;;;;;;;;;5120030;28;20212;-72
2021/04/19 04:53:07;;;;;;;10.93;5.37;;;;;;;;;;5120028;28;20299;-71
2021/04/19 04:55:35;;;;;;;11.40;6.90;;;;;;;;;;5119559;28;20746;-71
2021/04/19 04:58:02;;;;;;;8.30;6.13;;;;;;;;;;5119771;28;20715;-72
2021/04/19 05:00:31;;;;;;;9.50;5.37;;;;;;;;;;5119575;28;20266;-72
2021/04/19 05:02:58;;;;;;;9.50;6.23;;;;;;;;;;5119963;28;20216;-71
2021/04/19 05:05:25;;;;;;;8.47;6.80;;;;;;;;;;5119656;28;20642;-71
2021/04/19 05:07:53;;;;;;;7.97;6.57;;;;;;;;;;5120092;28;20203;-70
2021/04/19 05:10:20;;;;;;;9.20;6.40;;;;;;;;;;5119265;28;20692;-70
2021/04/19 05:12:48;;;;;;;11.33;6.50;;;;;;;;;;5119717;28;20201;-70
2021/04/19 05:15:15;;;;;;;12.87;6.30;;;;;;;;;;5119349;28;20225;-72
2021/04/19 05:17:42;;;;;;;7.67;6.37;;;;;;;;;;5119484;28;20783;-72
2021/04/19 05:20:11;;;;;;;7.37;6.00;;;;;;;;;;5119547;28;20680;-72
2021/04/19 05:22:38;;;;;;;10.80;6.43;;;;;;;;;;5119616;27;20205;-70
2021/04/19 05:25:07;;;;;;;9.10;6.13;;;;;;;;;;5119518;28;20307;-70
2021/04/19 05:27:35;;;;;;;10.57;6.60;;;;;;;;;;5119534;28;20212;-71
2021/04/19 05:30:02;;;;;;;8.40;6.00;;;;;;;;;;5119459;28;20205;-70
2021/04/19 05:32:29;;;;;;;12.37;7.30;;;;;;;;;;5119197;28;20243;-71
2021/04/19 05:34:56;;;;;;;8.30;6.90;;;;;;;;;;5119055;27;20221;-70
2021/04/19 05:37:29;;;;;;;9.77;7.13;;;;;;;;;;5119077;28;20294;-71
2021/04/19 05:39:56;;;;;;;10.03;6.60;;;;;;;;;;5119185;28;20291;-71
2021/04/19 05:42:24;;;;;;;8.63;6.77;;;;;;;;;;5119012;28;20236;-71
2021/04/19 05:44:51;;;;;;;11.70;6.60;;;;;;;;;;5119046;28;20264;-71
2021/04/19 05:47:18;;;;;;;10.97;6.60;;;;;;;;;;5118419;28;20204;-72
2021/04/19 05:49:45;;;;;;;9.87;6.37;;;;;;;;;;5119289;28;20204;-71
2021/04/19 05:52:13;;;;;;;10.07;7.17;;;;;;;;;;5118871;28;20292;-70
2021/04/19 05:54:41;;;;;;;10.27;6.57;;;;;;;;;;5118851;28;20308;-68
2021/04/19 05:57:15;;;;;;;8.00;5.80;;;;;;;;;;5118895;28;20296;-69
2021/04/19 05:59:46;;;;;;;10.70;6.73;;;;;;;;;;5118833;28;20699;-69
2021/04/19 06:02:14;;;;;;;9.80;6.83;;;;;;;;;;5118690;28;20244;-69
2021/04/19 06:04:47;;;;;;;10.27;6.43;;;;;;;;;;5118679;28;20630;-68
2021/04/19 06:07:16;;;;;;;9.90;6.43;;;;;;;;;;5118748;28;20287;-71
2021/04/19 06:09:46;;;;;;;9.43;6.70;;;;;;;;;;5118611;28;20259;-70
2021/04/19 06:12:17;;;;;;;10.53;6.53;;;;;;;;;;5118509;28;20289;-70
2021/04/19 06:14:47;;;;;;;9.57;7.37;;;;;;;;;;5118469;28;20707;-70
2021/04/19 06:17:15;;;;;;;9.37;6.63;;;;;;;;;;5118459;28;20235;-70
2021/04/19 06:19:44;;;;;;;9.90;6.63;;;;;;;;;;5118412;28;20569;-68
2021/04/19 06:22:14;;;;;;;10.87;7.00;;;;;;;;;;5118081;28;20201;-70
2021/04/19 06:24:44;;;;;;;11.13;7.37;;;;;;;;;;5118095;28;20779;-69
2021/04/19 06:27:15;;;;;;;9.93;7.53;;;;;;;;;;5118217;28;20743;-69
2021/04/19 06:29:42;;;;;;;10.17;7.10;;;;;;;;;;5118528;28;20200;-69
2021/04/19 06:32:11;;;;;;;8.73;6.90;;;;;;;;;;5118087;28;20288;-68
2021/04/19 06:34:38;;;;;;;11.10;7.37;;;;;;;;;;5118019;28;20638;-68
2021/04/19 06:37:06;;;;;;;12.77;7.60;;;;;;;;;;5118187;28;20810;-67
2021/04/19 06:39:33;;;;;;;12.23;6.50;;;;;;;;;;5117980;28;20636;-67
2021/04/19 06:42:02;;;;;;;11.70;8.17;;;;;;;;;;5118080;28;20548;-68
2021/04/19 06:44:29;;;;;;;13.10;6.97;;;;;;;;;;5118285;28;20309;-68
2021/04/19 06:46:58;;;;;;;11.17;8.13;;;;;;;;;;5117688;28;20565;-68
2021/04/19 06:49:26;;;;;;;10.47;6.73;;;;;;;;;;5105266;28;20211;-68
2021/04/19 06:51:55;;;;;;;11.37;7.03;;;;;;;;;;5118315;28;20215;-68
2021/04/19 06:54:22;;;;;;;15.80;7.90;;;;;;;;;;5118329;28;20312;-68
2021/04/19 06:56:50;;;;;;;11.07;7.80;;;;;;;;;;5117944;28;20312;-68
2021/04/19 06:59:18;;;;;;;12.17;7.70;;;;;;;;;;5120344;28;21684;-69
2021/04/19 07:01:49;;;;;;;10.43;7.17;;;;;;;;;;5116678;28;20205;-68
2021/04/19 07:04:19;;;;;;;13.40;7.73;;;;;;;;;;5115475;28;20209;-69
2021/04/19 07:06:47;;;;;;;12.40;7.37;;;;;;;;;;5118953;28;20226;-68
2021/04/19 07:09:18;;;;;;;11.47;7.53;;;;;;;;;;5117766;28;20264;-68
2021/04/19 07:11:47;;;;;;;13.07;7.37;;;;;;;;;;5119714;28;20283;-68
2021/04/19 07:14:16;;;;;;;10.57;6.73;;;;;;;;;;5120375;28;20287;-67
2021/04/19 07:16:43;;;;;;;9.53;7.60;;;;;;;;;;5107521;28;20227;-68
2021/04/19 07:19:10;;;;;;;9.43;7.60;;;;;;;;;;5117978;28;20220;-68
2021/04/19 07:21:38;;;;;;;14.43;7.63;;;;;;;;;;5117629;28;20215;-69
2021/04/19 07:24:06;;;;;;;14.10;8.50;;;;;;;;;;5117680;28;20268;-70
2021/04/19 07:26:33;;;;;;;12.47;8.83;;;;;;;;;;5117088;28;20236;-69
2021/04/19 07:29:01;;;;;;;14.07;9.30;;;;;;;;;;5117724;28;20216;-69
2021/04/19 07:31:28;;;;;;;15.87;10.87;;;;;;;;;;5117027;28;20340;-69
2021/04/19 07:33:55;;;;;;;17.30;11.60;;;;;;;;;;5120959;28;20706;-69
2021/04/19 07:36:23;;;;;;;18.53;10.07;;;;;;;;;;5120943;27;20227;-71
2021/04/19 07:38:51;;;;;;;20.67;12.83;;;;;;;;;;5121475;27;20193;-70
2021/04/19 07:41:19;;;;;;;21.53;12.17;;;;;;;;;;5130494;27;20227;-70
2021/04/19 07:43:48;;;;;;;9.83;7.87;;;;;;;;;;5120685;27;20567;-73
2021/04/19 07:46:15;;;;;;;10.80;6.97;;;;;;;;;;5109453;28;20260;-73
2021/04/19 07:48:45;;;;;;;16.07;7.47;;;;;;;;;;5109013;28;20201;-72
2021/04/19 07:51:29;;;;;;;10.23;7.50;;;;;;;;;;5108908;28;20252;-73
2021/04/19 07:54:14;;;;;;;13.70;7.50;;;;;;;;;;5105050;28;20236;-72
2021/04/19 07:56:43;;;;;;;10.20;6.90;;;;;;;;;;5108109;27;20312;-71
2021/04/19 07:59:23;;;;;;;12.73;7.43;;;;;;;;;;5108361;28;20806;-73
2021/04/19 08:01:57;;;;;;;12.07;7.23;;;;;;;;;;5108052;28;20223;-72
2021/04/19 08:04:24;;;;;;;11.70;7.70;;;;;;;;;;5107618;28;20222;-73
2021/04/19 08:06:51;;;;;;;10.73;7.07;;;;;;;;;;5105710;28;20193;-73
2021/04/19 08:09:22;;;;;;;10.47;6.60;;;;;;;;;;5108028;28;20224;-72
2021/04/19 08:11:57;;;;;;;11.17;7.60;;;;;;;;;;5107717;28;20564;-72
2021/04/19 08:14:25;;;;;;;13.13;7.67;;;;;;;;;;5108031;28;20299;-73
2021/04/19 08:17:04;;;;;;;11.57;6.90;;;;;;;;;;5105354;28;20304;-73
2021/04/19 08:19:33;;;;;;;10.97;7.37;;;;;;;;;;5107629;28;20204;-72
2021/04/19 08:22:11;;;;;;;14.30;6.83;;;;;;;;;;5107176;28;20292;-72
2021/04/19 08:24:38;;;;;;;13.67;7.17;;;;;;;;;;5116801;28;20267;-73
2021/04/19 08:27:17;;;;;;;9.13;7.07;;;;;;;;;;5120110;28;20226;-73
2021/04/19 08:29:46;;;;;;;12.67;7.67;;;;;;;;;;5120109;28;20205;-72
2021/04/19 08:32:14;;;;;;;8.57;5.67;;;;;;;;;;5115838;27;20208;-72
2021/04/19 08:34:42;;;;;;;8.90;6.83;;;;;;;;;;5107915;28;20213;-72
2021/04/19 08:37:10;;;;;;;10.27;6.77;;;;;;;;;;5107452;28;20214;-72
2021/04/19 08:39:38;;;;;;;10.13;5.90;;;;;;;;;;5107477;28;20260;-72
2021/04/19 08:42:19;;;;;;;8.90;5.47;;;;;;;;;;5107543;28;20197;-72
2021/04/19 08:44:47;;;;;;;5.43;4.80;;;;;;;;;;5106428;28;20303;-72
2021/04/19 08:47:19;;;;;;;6.97;5.00;;;;;;;;;;5106592;28;20665;-70
2021/04/19 08:49:48;;;;;;;6.87;5.33;;;;;;;;;;5105352;28;20254;-72
2021/04/19 08:52:15;;;;;;;8.27;5.13;;;;;;;;;;5110372;27;20224;-72
2021/04/19 08:54:43;;;;;;;7.20;5.33;;;;;;;;;;5107310;28;20224;-72
2021/04/19 08:57:10;;;;;;;5.73;4.80;;;;;;;;;;5107483;27;20217;-72
2021/04/19 08:59:38;;;;;;;7.57;4.70;;;;;;;;;;5105023;28;20211;-70
2021/04/19 09:02:06;;;;;;;6.00;4.60;;;;;;;;;;5107556;28;20235;-70
2021/04/19 09:04:34;;;;;;;5.33;4.27;;;;;;;;;;5105217;28;20233;-70
2021/04/19 09:07:02;;;;;;;5.77;5.03;;;;;;;;;;5106978;28;20281;-70
2021/04/19 09:09:39;;;;;;;5.77;3.97;;;;;;;;;;5103660;28;20298;-70
2021/04/19 09:12:22;;;;;;;7.90;4.37;;;;;;;;;;5112918;28;20193;-69
2021/04/19 09:14:51;;;;;;;5.03;3.77;;;;;;;;;;5107439;28;20269;-71
2021/04/19 09:17:25;;;;;;;6.00;3.73;;;;;;;;;;5109747;28;20301;-71
2021/04/19 09:19:55;;;;;;;4.07;3.40;;;;;;;;;;5106938;27;20240;-71
2021/04/19 09:22:22;;;;;;;9.87;3.67;;;;;;;;;;5102186;28;20220;-74
2021/04/19 09:25:01;;;;;;;4.90;3.37;;;;;;;;;;5100594;28;20682;-70
2021/04/19 09:27:42;;;;;;;5.00;3.93;;;;;;;;;;5098876;28;20303;-70
2021/04/19 09:30:25;;;;;;;7.50;3.80;;;;;;;;;;5114770;28;20726;-75
2021/04/19 09:33:07;;;;;;;5.53;3.27;;;;;;;;;;5099825;28;20221;-70
2021/04/19 09:35:42;;;;;;;5.07;2.90;;;;;;;;;;5109497;28;20213;-70
2021/04/19 09:38:10;;;;;;;5.17;3.30;;;;;;;;;;5105583;28;20249;-71
2021/04/19 09:40:46;;;;;;;4.67;3.13;;;;;;;;;;5118512;28;20775;-71
2021/04/19 09:43:13;;;;;;;4.00;3.27;;;;;;;;;;5118353;28;20283;-71
2021/04/19 09:45:54;;;;;;;7.50;2.90;;;;;;;;;;5118231;27;20790;-71
2021/04/19 09:48:40;;;;;;;4.33;3.20;;;;;;;;;;5139216;27;20210;-70
2021/04/19 09:51:13;;;;;;;3.43;3.13;;;;;;;;;;5138946;27;20249;-68
2021/04/19 09:53:41;;;;;;;4.37;3.10;;;;;;;;;;5138778;27;20200;-70
2021/04/19 09:56:09;;;;;;;5.17;3.07;;;;;;;;;;5113378;27;20305;-73
2021/04/19 09:58:39;;;;;;;3.00;2.70;;;;;;;;;;5106121;28;20285;-72
2021/04/19 10:01:07;;;;;;;2.83;2.40;;;;;;;;;;5103481;28;20205;-71
2021/04/19 10:03:34;;;;;;;4.43;2.83;;;;;;;;;;5127347;27;20269;-72
2021/04/19 10:06:03;;;;;;;3.87;2.70;;;;;;;;;;5138968;27;20259;-72
2021/04/19 10:08:33;;;;;;;4.23;3.17;;;;;;;;;;5114204;27;20263;-72
2021/04/19 10:11:01;;;;;;;3.80;2.77;;;;;;;;;;5117470;28;20221;-71
2021/04/19 10:13:29;;;;;;;7.43;2.63;;;;;;;;;;5118154;28;20243;-72
2021/04/19 10:16:06;;;;;;;3.07;2.83;;;;;;;;;;5115831;28;20254;-72
2021/04/19 10:18:34;;;;;;;4.10;2.77;;;;;;;;;;5127409;27;20287;-72
2021/04/19 10:21:02;;;;;;;3.50;2.73;;;;;;;;;;5138839;27;20204;-72
2021/04/19 10:23:38;;;;;;;3.83;2.53;;;;;;;;;;5137862;27;20208;-70
2021/04/19 10:26:06;;;;;;;3.40;2.60;;;;;;;;;;5117823;28;20248;-71
2021/04/19 10:28:35;;;;;;;2.67;2.47;;;;;;;;;;5117665;28;20228;-71
2021/04/19 10:31:20;;;;;;;3.67;3.13;;;;;;;;;;5113389;28;20664;-71
2021/04/19 10:33:49;;;;;;;4.10;2.67;;;;;;;;;;5104089;28;20206;-71
2021/04/19 10:36:17;;;;;;;5.93;3.30;;;;;;;;;;5105346;28;20312;-71
2021/04/19 10:38:46;;;;;;;4.07;3.67;;;;;;;;;;5104409;28;20272;-72
2021/04/19 10:41:13;;;;;;;7.57;3.27;;;;;;;;;;5117716;28;20215;-70
2021/04/19 10:43:41;;;;;;;3.43;3.10;;;;;;;;;;5118000;28;20679;-72
2021/04/19 10:46:22;;;;;;;3.50;2.93;;;;;;;;;;5117301;28;20225;-71
2021/04/19 10:48:49;;;;;;;3.23;2.60;;;;;;;;;;5117816;28;20204;-72
2021/04/19 10:51:17;;;;;;;4.27;3.07;;;;;;;;;;5105544;28;20232;-74
2021/04/19 10:53:45;;;;;;;4.00;3.03;;;;;;;;;;5106719;28;20258;-72
2021/04/19 10:56:21;;;;;;;8.40;3.90;;;;;;;;;;5105308;28;20216;-73
2021/04/19 10:58:48;;;;;;;5.80;3.23;;;;;;;;;;5103579;28;20256;-74
2021/04/19 11:01:20;;;;;;;3.97;3.00;;;;;;;;;;5117352;28;20268;-75
2021/04/19 11:03:47;;;;;;;3.93;3.23;;;;;;;;;;5120994;28;20210;-74
2021/04/19 11:06:16;;;;;;;6.10;3.83;;;;;;;;;;5117813;27;20228;-73
2021/04/19 11:08:51;;;;;;;4.13;3.33;;;;;;;;;;5118351;27;20624;-73
2021/04/19 11:11:26;;;;;;;4.10;2.50;;;;;;;;;;5142010;27;20651;-73
2021/04/19 11:13:54;;;;;;;4.00;2.83;;;;;;;;;;5142235;27;20291;-73
2021/04/19 11:16:21;;;;;;;7.17;2.90;;;;;;;;;;5141964;27;20224;-73
2021/04/19 11:18:49;;;;;;;3.17;2.63;;;;;;;;;;5141771;27;20274;-73
2021/04/19 11:21:37;;;;;;;7.60;3.00;;;;;;;;;;5117119;27;20205;-74
2021/04/19 11:24:09;;;;;;;3.67;2.83;;;;;;;;;;5108157;28;20608;-74
2021/04/19 11:26:36;;;;;;;5.57;2.87;;;;;;;;;;5107545;28;20283;-74
2021/04/19 11:29:04;;;;;;;3.17;2.87;;;;;;;;;;5117031;28;20505;-74
2021/04/19 11:31:46;;;;;;;4.43;2.93;;;;;;;;;;5120987;28;20266;-74
2021/04/19 11:34:14;;;;;;;3.60;2.87;;;;;;;;;;5115069;28;20208;-74
2021/04/19 11:37:01;;;;;;;5.03;2.63;;;;;;;;;;5106852;28;20212;-74
2021/04/19 11:39:35;;;;;;;5.90;2.77;;;;;;;;;;5108267;28;20755;-73
2021/04/19 11:42:06;;;;;;;4.07;2.77;;;;;;;;;;5108797;28;20648;-74
2021/04/19 11:44:46;;;;;;;4.43;2.53;;;;;;;;;;5108357;28;20324;-74
2021/04/19 11:47:15;;;;;;;5.10;3.37;;;;;;;;;;5108975;28;20197;-74
2021/04/19 11:49:42;;;;;;;3.60;2.63;;;;;;;;;;5104929;28;20669;-73
2021/04/19 11:52:09;;;;;;;5.67;3.10;;;;;;;;;;5106971;27;21107;-74
2021/04/19 11:54:37;;;;;;;3.97;3.07;;;;;;;;;;5120703;27;20222;-75
2021/04/19 11:57:05;;;;;;;6.23;2.77;;;;;;;;;;5140785;27;20227;-74
2021/04/19 11:59:32;;;;;;;3.80;2.70;;;;;;;;;;5141587;27;20226;-74
2021/04/19 12:02:01;;;;;;;4.33;2.50;;;;;;;;;;5141732;27;20211;-75
2021/04/19 12:04:28;;;;;;;4.20;2.50;;;;;;;;;;5141702;27;20280;-73
2021/04/19 12:06:55;;;;;;;2.40;2.20;;;;;;;;;;5141845;27;20295;-73
2021/04/19 12:09:22;;;;;;;3.00;2.70;;;;;;;;;;5141698;27;20231;-73
2021/04/19 12:11:51;;;;;;;3.07;2.70;;;;;;;;;;5141548;27;20246;-73
2021/04/19 12:14:18;;;;;;;4.20;2.80;;;;;;;;;;5141470;27;20305;-72
2021/04/19 12:16:45;;;;;;;3.97;3.13;;;;;;;;;;5141476;27;20212;-72
2021/04/19 12:19:12;;;;;;;4.13;2.40;;;;;;;;;;5140234;27;20228;-72
2021/04/19 12:21:40;;;;;;;3.43;2.40;;;;;;;;;;5141569;27;20228;-74
2021/04/19 12:24:07;;;;;;;2.87;2.20;;;;;;;;;;5141494;27;20263;-72
2021/04/19 12:26:35;;;;;;;4.00;2.47;;;;;;;;;;5140980;27;20783;-75
2021/04/19 12:29:12;;;;;;;4.80;2.73;;;;;;;;;;5141447;27;20594;-68
2021/04/19 12:31:40;;;;;;;4.17;2.33;;;;;;;;;;5141115;27;20287;-68
2021/04/19 12:34:07;;;;;;;3.83;2.83;;;;;;;;;;5140833;27;20216;-68
2021/04/19 12:36:34;;;;;;;2.47;2.27;;;;;;;;;;5120642;28;20235;-73
2021/04/19 12:39:02;;;;;;;2.57;2.37;;;;;;;;;;5118545;27;20770;-71
2021/04/19 12:41:30;;;;;;;2.83;2.27;;;;;;;;;;5119391;27;20258;-69
2021/04/19 12:43:57;;;;;;;6.67;2.53;;;;;;;;;;5122107;27;20566;-71
2021/04/19 12:46:26;;;;;;;4.17;2.50;;;;;;;;;;5119781;28;20228;-71
2021/04/19 12:48:54;;;;;;;4.10;2.00;;;;;;;;;;5122789;27;20227;-71
2021/04/19 12:51:21;;;;;;;6.37;2.60;;;;;;;;;;5120104;28;20296;-71
2021/04/19 12:53:48;;;;;;;3.43;2.47;;;;;;;;;;5119414;27;20205;-69
2021/04/19 12:56:15;;;;;;;2.87;2.07;;;;;;;;;;5120365;28;20256;-69
2021/04/19 12:58:43;;;;;;;3.30;2.20;;;;;;;;;;5122124;27;20594;-69
2021/04/19 13:01:11;;;;;;;2.43;2.10;;;;;;;;;;5109294;27;20210;-71
2021/04/19 13:03:39;;;;;;;2.27;2.00;;;;;;;;;;5107519;28;20204;-71
2021/04/19 13:06:07;;;;;;;2.30;2.10;;;;;;;;;;5107333;28;20225;-70
2021/04/19 13:08:34;;;;;;;4.30;2.43;;;;;;;;;;5110731;28;20631;-70
2021/04/19 13:11:02;;;;;;;3.43;2.10;;;;;;;;;;5119096;28;20215;-71
2021/04/19 13:13:29;;;;;;;2.60;2.27;;;;;;;;;;5119560;28;20293;-71
2021/04/19 13:15:56;;;;;;;5.03;3.23;;;;;;;;;;5119101;28;20252;-71
2021/04/19 13:18:23;;;;;;;4.10;2.60;;;;;;;;;;5119838;28;20267;-73
2021/04/19 13:20:51;;;;;;;3.70;2.80;;;;;;;;;;5119863;28;20243;-71
2021/04/19 13:23:18;;;;;;;4.10;2.33;;;;;;;;;;5119636;28;20284;-71
2021/04/19 13:25:45;;;;;;;3.37;2.27;;;;;;;;;;5119458;28;20328;-72
2021/04/19 13:28:12;;;;;;;2.90;2.57;;;;;;;;;;5119699;28;20201;-72
2021/04/19 13:30:39;;;;;;;3.77;2.30;;;;;;;;;;5118956;28;20227;-72
2021/04/19 13:33:06;;;;;;;2.40;2.20;;;;;;;;;;5119365;28;20209;-72
2021/04/19 13:35:35;;;;;;;2.87;2.60;;;;;;;;;;5119451;28;20242;-73
2021/04/19 13:38:04;;;;;;;2.93;2.70;;;;;;;;;;5119420;28;20225;-71
2021/04/19 13:40:31;;;;;;;2.43;2.23;;;;;;;;;;5119507;28;20217;-71
2021/04/19 13:42:58;;;;;;;3.13;2.03;;;;;;;;;;5119307;28;20207;-72
2021/04/19 13:45:25;;;;;;;3.17;2.40;;;;;;;;;;5118920;28;20307;-72
2021/04/19 13:47:52;;;;;;;3.60;2.30;;;;;;;;;;5119351;28;20288;-72
2021/04/19 13:50:19;;;;;;;4.83;2.30;;;;;;;;;;5119003;28;20229;-72
2021/04/19 13:52:46;;;;;;;2.50;2.10;;;;;;;;;;5119443;28;20265;-72
2021/04/19 13:55:15;;;;;;;3.57;2.47;;;;;;;;;;5118862;28;20661;-72
2021/04/19 13:57:42;;;;;;;3.53;2.57;;;;;;;;;;5118783;28;20308;-72
2021/04/19 14:00:12;;;;;;;4.60;2.57;;;;;;;;;;5118607;28;20706;-72
2021/04/19 14:02:38;;;;;;;3.23;2.30;;;;;;;;;;5119060;28;20232;-72
2021/04/19 14:05:06;;;;;;;2.87;2.57;;;;;;;;;;5118756;28;20739;-72
2021/04/19 14:07:33;;;;;;;3.10;2.77;;;;;;;;;;5119166;27;20273;-73
2021/04/19 14:10:00;;;;;;;2.60;2.40;;;;;;;;;;5118734;28;20244;-72
2021/04/19 14:12:28;;;;;;;3.63;2.27;;;;;;;;;;5118628;28;20244;-73
2021/04/19 14:14:55;;;;;;;4.13;2.50;;;;;;;;;;5118234;28;20807;-73
2021/04/19 14:17:22;;;;;;;3.57;2.23;;;;;;;;;;5118896;28;20243;-73
2021/04/19 14:19:50;;;;;;;3.13;2.73;;;;;;;;;;5118770;28;20197;-72
2021/04/19 14:22:17;;;;;;;3.10;2.40;;;;;;;;;;5118563;28;20614;-73
2021/04/19 14:24:44;;;;;;;3.03;2.73;;;;;;;;;;5118604;28;20255;-73
2021/04/19 14:27:11;;;;;;;3.83;2.50;;;;;;;;;;5118236;28;20315;-72
2021/04/19 14:29:39;;;;;;;2.73;2.53;;;;;;;;;;5118736;28;20211;-72
2021/04/19 14:32:07;;;;;;;4.37;2.63;;;;;;;;;;5118167;28;20287;-72
2021/04/19 14:34:35;;;;;;;2.30;2.10;;;;;;;;;;5118454;27;20227;-72
2021/04/19 14:37:03;;;;;;;5.30;2.30;;;;;;;;;;5118246;28;20201;-72
2021/04/19 14:39:30;;;;;;;6.67;2.80;;;;;;;;;;5118220;28;20680;-73
2021/04/19 14:41:57;;;;;;;3.17;2.57;;;;;;;;;;5117959;28;20676;-72
2021/04/19 14:44:24;;;;;;;5.50;2.87;;;;;;;;;;5118449;28;20260;-73
2021/04/19 14:46:52;;;;;;;5.93;2.60;;;;;;;;;;5117904;28;20614;-73
2021/04/19 14:49:22;;;;;;;3.33;2.80;;;;;;;;;;5118448;28;20197;-72
2021/04/19 14:51:49;;;;;;;3.13;2.40;;;;;;;;;;5118173;28;20227;-72